sensor_id;sensor_type;location;lat;lon;timestamp;temperature;humidity
64226;DHT22;50545;56.064;26.178;2023-02-14T00:01:08;1.80;99.90
64226;DHT22;50545;56.064;26.178;2023-02-14T00:03:36;1.80;99.90
64226;DHT22;50545;56.064;26.178;2023-02-14T00:06:08;1.80;99.90
64226;DHT22;50545;56.064;26.178;2023-02-14T00:08:36;1.80;99.90
64226;DHT22;50545;56.064;26.178;2023-02-14T00:11:03;1.70;99.90
64226;DHT22;50545;56.064;26.178;2023-02-14T00:13:31;1.70;99.90
64226;DHT22;50545;56.064;26.178;2023-02-14T00:15:58;1.70;99.90
64226;DHT22;50545;56.064;26.178;2023-02-14T00:18:26;1.70;99.90
64226;DHT22;50545;56.064;26.178;2023-02-14T00:21:13;1.70;99.90
64226;DHT22;50545;56.064;26.178;2023-02-14T00:23:40;1.60;99.90
64226;DHT22;50545;56.064;26.178;2023-02-14T00:26:16;1.60;99.90
64226;DHT22;50545;56.064;26.178;2023-02-14T00:28:44;1.50;99.90
64226;DHT22;50545;56.064;26.178;2023-02-14T00:31:11;1.50;99.90
64226;DHT22;50545;56.064;26.178;2023-02-14T00:33:39;1.50;99.90
64226;DHT22;50545;56.064;26.178;2023-02-14T00:36:07;1.40;99.90
64226;DHT22;50545;56.064;26.178;2023-02-14T00:38:35;1.40;99.90
64226;DHT22;50545;56.064;26.178;2023-02-14T00:41:03;1.40;99.90
64226;DHT22;50545;56.064;26.178;2023-02-14T00:43:31;1.30;99.90
64226;DHT22;50545;56.064;26.178;2023-02-14T00:45:58;1.30;99.90
64226;DHT22;50545;56.064;26.178;2023-02-14T00:48:25;1.30;99.90
64226;DHT22;50545;56.064;26.178;2023-02-14T00:50:52;1.40;99.90
64226;DHT22;50545;56.064;26.178;2023-02-14T00:53:20;1.40;99.90
64226;DHT22;50545;56.064;26.178;2023-02-14T00:55:47;1.40;99.90
64226;DHT22;50545;56.064;26.178;2023-02-14T00:58:14;1.40;99.90
64226;DHT22;50545;56.064;26.178;2023-02-14T01:00:41;1.40;99.90
64226;DHT22;50545;56.064;26.178;2023-02-14T01:03:08;1.40;99.90
64226;DHT22;50545;56.064;26.178;2023-02-14T01:05:36;1.50;99.90
64226;DHT22;50545;56.064;26.178;2023-02-14T01:08:03;1.50;99.90
64226;DHT22;50545;56.064;26.178;2023-02-14T01:10:30;1.40;99.90
64226;DHT22;50545;56.064;26.178;2023-02-14T01:12:58;1.40;99.90
64226;DHT22;50545;56.064;26.178;2023-02-14T01:15:25;1.40;99.90
64226;DHT22;50545;56.064;26.178;2023-02-14T01:17:53;1.40;99.90
64226;DHT22;50545;56.064;26.178;2023-02-14T01:20:20;1.40;99.90
64226;DHT22;50545;56.064;26.178;2023-02-14T01:22:47;1.40;99.90
64226;DHT22;50545;56.064;26.178;2023-02-14T01:25:15;1.40;99.90
64226;DHT22;50545;56.064;26.178;2023-02-14T01:27:42;1.40;99.90
64226;DHT22;50545;56.064;26.178;2023-02-14T01:30:09;1.40;99.90
64226;DHT22;50545;56.064;26.178;2023-02-14T01:32:37;1.40;99.90
64226;DHT22;50545;56.064;26.178;2023-02-14T01:35:04;1.40;99.90
64226;DHT22;50545;56.064;26.178;2023-02-14T01:37:31;1.40;99.90
64226;DHT22;50545;56.064;26.178;2023-02-14T01:39:59;1.40;99.90
64226;DHT22;50545;56.064;26.178;2023-02-14T01:42:27;1.40;99.90
64226;DHT22;50545;56.064;26.178;2023-02-14T01:45:06;1.40;99.90
64226;DHT22;50545;56.064;26.178;2023-02-14T01:47:38;1.30;99.90
64226;DHT22;50545;56.064;26.178;2023-02-14T01:50:21;1.30;99.90
64226;DHT22;50545;56.064;26.178;2023-02-14T01:52:53;1.20;99.90
64226;DHT22;50545;56.064;26.178;2023-02-14T01:55:24;1.30;99.90
64226;DHT22;50545;56.064;26.178;2023-02-14T01:58:04;1.30;99.90
64226;DHT22;50545;56.064;26.178;2023-02-14T02:00:32;1.30;99.90
64226;DHT22;50545;56.064;26.178;2023-02-14T02:03:18;1.30;99.90
64226;DHT22;50545;56.064;26.178;2023-02-14T02:05:53;1.30;99.90
64226;DHT22;50545;56.064;26.178;2023-02-14T02:08:22;1.30;99.90
64226;DHT22;50545;56.064;26.178;2023-02-14T02:10:49;1.30;99.90
64226;DHT22;50545;56.064;26.178;2023-02-14T02:13:18;1.20;99.90
64226;DHT22;50545;56.064;26.178;2023-02-14T02:18:41;1.10;99.90
64226;DHT22;50545;56.064;26.178;2023-02-14T02:24:30;1.10;99.90
64226;DHT22;50545;56.064;26.178;2023-02-14T02:58:41;1.00;99.90
64226;DHT22;50545;56.064;26.178;2023-02-14T03:01:14;1.00;99.90
64226;DHT22;50545;56.064;26.178;2023-02-14T03:03:46;1.10;99.90
64226;DHT22;50545;56.064;26.178;2023-02-14T03:06:33;1.10;99.90
64226;DHT22;50545;56.064;26.178;2023-02-14T03:12:24;1.10;99.90
64226;DHT22;50545;56.064;26.178;2023-02-14T03:20:20;1.10;99.90
64226;DHT22;50545;56.064;26.178;2023-02-14T03:22:57;1.10;99.90
64226;DHT22;50545;56.064;26.178;2023-02-14T03:28:13;1.00;99.90
64226;DHT22;50545;56.064;26.178;2023-02-14T03:36:21;1.00;99.90
64226;DHT22;50545;56.064;26.178;2023-02-14T03:39:14;1.00;99.90
64226;DHT22;50545;56.064;26.178;2023-02-14T03:41:49;1.00;99.90
64226;DHT22;50545;56.064;26.178;2023-02-14T03:44:20;1.00;99.90
64226;DHT22;50545;56.064;26.178;2023-02-14T03:46:55;1.00;99.90
64226;DHT22;50545;56.064;26.178;2023-02-14T03:49:28;1.00;99.90
64226;DHT22;50545;56.064;26.178;2023-02-14T03:51:57;0.90;99.90
64226;DHT22;50545;56.064;26.178;2023-02-14T03:54:26;1.00;99.90
64226;DHT22;50545;56.064;26.178;2023-02-14T03:57:25;1.00;99.90
64226;DHT22;50545;56.064;26.178;2023-02-14T03:59:54;0.90;99.90
64226;DHT22;50545;56.064;26.178;2023-02-14T04:02:36;0.90;99.90
64226;DHT22;50545;56.064;26.178;2023-02-14T04:05:12;0.90;99.90
64226;DHT22;50545;56.064;26.178;2023-02-14T04:07:46;0.90;99.90
64226;DHT22;50545;56.064;26.178;2023-02-14T04:10:14;0.80;99.90
64226;DHT22;50545;56.064;26.178;2023-02-14T04:12:43;0.80;99.90
64226;DHT22;50545;56.064;26.178;2023-02-14T04:15:10;0.80;99.90
64226;DHT22;50545;56.064;26.178;2023-02-14T04:17:38;0.80;99.90
64226;DHT22;50545;56.064;26.178;2023-02-14T04:20:24;0.90;99.90
64226;DHT22;50545;56.064;26.178;2023-02-14T04:22:51;0.90;99.90
64226;DHT22;50545;56.064;26.178;2023-02-14T04:25:19;0.90;99.90
64226;DHT22;50545;56.064;26.178;2023-02-14T04:27:47;0.80;99.90
64226;DHT22;50545;56.064;26.178;2023-02-14T04:30:15;0.80;99.90
64226;DHT22;50545;56.064;26.178;2023-02-14T04:32:44;0.80;99.90
64226;DHT22;50545;56.064;26.178;2023-02-14T04:35:11;0.80;99.90
64226;DHT22;50545;56.064;26.178;2023-02-14T04:37:38;0.80;99.90
64226;DHT22;50545;56.064;26.178;2023-02-14T04:40:06;0.70;99.90
64226;DHT22;50545;56.064;26.178;2023-02-14T04:42:34;0.70;99.90
64226;DHT22;50545;56.064;26.178;2023-02-14T04:45:01;0.70;99.90
64226;DHT22;50545;56.064;26.178;2023-02-14T04:47:30;0.70;99.90
64226;DHT22;50545;56.064;26.178;2023-02-14T04:49:57;0.70;99.90
64226;DHT22;50545;56.064;26.178;2023-02-14T04:52:24;0.60;99.90
64226;DHT22;50545;56.064;26.178;2023-02-14T04:54:52;0.60;99.90
64226;DHT22;50545;56.064;26.178;2023-02-14T04:57:19;0.60;99.90
64226;DHT22;50545;56.064;26.178;2023-02-14T04:59:46;0.60;99.90
64226;DHT22;50545;56.064;26.178;2023-02-14T05:02:13;0.50;99.90
64226;DHT22;50545;56.064;26.178;2023-02-14T05:04:41;0.50;99.90
64226;DHT22;50545;56.064;26.178;2023-02-14T05:07:08;0.50;99.90
64226;DHT22;50545;56.064;26.178;2023-02-14T05:09:35;0.40;99.90
64226;DHT22;50545;56.064;26.178;2023-02-14T05:12:03;0.50;99.90
64226;DHT22;50545;56.064;26.178;2023-02-14T05:14:30;0.50;99.90
64226;DHT22;50545;56.064;26.178;2023-02-14T05:16:57;0.50;99.90
64226;DHT22;50545;56.064;26.178;2023-02-14T05:19:24;0.50;99.90
64226;DHT22;50545;56.064;26.178;2023-02-14T05:21:51;0.50;99.90
64226;DHT22;50545;56.064;26.178;2023-02-14T05:24:19;0.50;99.90
64226;DHT22;50545;56.064;26.178;2023-02-14T05:26:46;0.50;99.90
64226;DHT22;50545;56.064;26.178;2023-02-14T05:29:13;0.50;99.90
64226;DHT22;50545;56.064;26.178;2023-02-14T05:31:40;0.40;99.90
64226;DHT22;50545;56.064;26.178;2023-02-14T05:34:08;0.40;99.90
64226;DHT22;50545;56.064;26.178;2023-02-14T05:36:35;0.30;99.90
64226;DHT22;50545;56.064;26.178;2023-02-14T05:39:03;0.30;99.90
64226;DHT22;50545;56.064;26.178;2023-02-14T05:41:30;0.30;99.90
64226;DHT22;50545;56.064;26.178;2023-02-14T05:43:57;0.30;99.90
64226;DHT22;50545;56.064;26.178;2023-02-14T05:46:24;0.30;99.90
64226;DHT22;50545;56.064;26.178;2023-02-14T05:48:52;0.30;99.90
64226;DHT22;50545;56.064;26.178;2023-02-14T05:51:19;0.20;99.90
64226;DHT22;50545;56.064;26.178;2023-02-14T05:53:46;0.20;99.90
64226;DHT22;50545;56.064;26.178;2023-02-14T05:56:14;0.20;99.90
64226;DHT22;50545;56.064;26.178;2023-02-14T05:58:41;0.10;99.90
64226;DHT22;50545;56.064;26.178;2023-02-14T06:01:08;0.10;99.90
64226;DHT22;50545;56.064;26.178;2023-02-14T06:03:36;0.20;99.90
64226;DHT22;50545;56.064;26.178;2023-02-14T06:06:03;0.20;99.90
64226;DHT22;50545;56.064;26.178;2023-02-14T06:08:30;0.20;99.90
64226;DHT22;50545;56.064;26.178;2023-02-14T06:10:57;0.20;99.90
64226;DHT22;50545;56.064;26.178;2023-02-14T06:13:25;0.20;99.90
64226;DHT22;50545;56.064;26.178;2023-02-14T06:15:52;0.20;99.90
64226;DHT22;50545;56.064;26.178;2023-02-14T06:18:19;0.20;99.90
64226;DHT22;50545;56.064;26.178;2023-02-14T06:20:47;0.20;99.90
64226;DHT22;50545;56.064;26.178;2023-02-14T06:23:14;0.20;99.90
64226;DHT22;50545;56.064;26.178;2023-02-14T06:25:41;0.30;99.90
64226;DHT22;50545;56.064;26.178;2023-02-14T06:28:08;0.30;99.90
64226;DHT22;50545;56.064;26.178;2023-02-14T06:30:35;0.30;99.90
64226;DHT22;50545;56.064;26.178;2023-02-14T06:33:03;0.30;99.90
64226;DHT22;50545;56.064;26.178;2023-02-14T06:35:30;0.40;99.90
64226;DHT22;50545;56.064;26.178;2023-02-14T06:37:57;0.40;99.90
64226;DHT22;50545;56.064;26.178;2023-02-14T06:40:24;0.40;99.90
64226;DHT22;50545;56.064;26.178;2023-02-14T06:42:52;0.40;99.90
64226;DHT22;50545;56.064;26.178;2023-02-14T06:45:19;0.40;99.90
64226;DHT22;50545;56.064;26.178;2023-02-14T06:47:46;0.40;99.90
64226;DHT22;50545;56.064;26.178;2023-02-14T06:50:13;0.50;99.90
64226;DHT22;50545;56.064;26.178;2023-02-14T06:52:40;0.50;99.90
64226;DHT22;50545;56.064;26.178;2023-02-14T06:55:08;0.50;99.90
64226;DHT22;50545;56.064;26.178;2023-02-14T06:57:37;0.50;99.90
64226;DHT22;50545;56.064;26.178;2023-02-14T07:00:07;0.60;99.90
64226;DHT22;50545;56.064;26.178;2023-02-14T07:02:36;0.60;99.90
64226;DHT22;50545;56.064;26.178;2023-02-14T07:05:03;0.60;99.90
64226;DHT22;50545;56.064;26.178;2023-02-14T07:07:30;0.70;99.90
64226;DHT22;50545;56.064;26.178;2023-02-14T07:09:58;0.70;99.90
64226;DHT22;50545;56.064;26.178;2023-02-14T07:12:25;0.70;99.90
64226;DHT22;50545;56.064;26.178;2023-02-14T07:14:52;0.70;99.90
64226;DHT22;50545;56.064;26.178;2023-02-14T07:17:19;0.80;99.90
64226;DHT22;50545;56.064;26.178;2023-02-14T07:19:46;0.80;99.90
64226;DHT22;50545;56.064;26.178;2023-02-14T07:22:13;0.80;99.90
64226;DHT22;50545;56.064;26.178;2023-02-14T07:24:40;0.80;99.90
64226;DHT22;50545;56.064;26.178;2023-02-14T07:27:08;0.90;99.90
64226;DHT22;50545;56.064;26.178;2023-02-14T07:29:35;1.00;99.90
64226;DHT22;50545;56.064;26.178;2023-02-14T07:32:03;1.00;99.90
64226;DHT22;50545;56.064;26.178;2023-02-14T07:34:30;1.00;99.90
64226;DHT22;50545;56.064;26.178;2023-02-14T07:37:00;1.00;99.90
64226;DHT22;50545;56.064;26.178;2023-02-14T07:39:27;1.10;99.90
64226;DHT22;50545;56.064;26.178;2023-02-14T07:41:54;1.20;99.90
64226;DHT22;50545;56.064;26.178;2023-02-14T07:44:21;1.20;99.90
64226;DHT22;50545;56.064;26.178;2023-02-14T07:46:48;1.30;99.90
64226;DHT22;50545;56.064;26.178;2023-02-14T07:49:15;1.30;99.90
64226;DHT22;50545;56.064;26.178;2023-02-14T07:51:43;1.30;99.90
64226;DHT22;50545;56.064;26.178;2023-02-14T07:54:10;1.40;99.90
64226;DHT22;50545;56.064;26.178;2023-02-14T07:56:37;1.50;99.90
64226;DHT22;50545;56.064;26.178;2023-02-14T07:59:04;1.50;99.90
64226;DHT22;50545;56.064;26.178;2023-02-14T08:01:31;1.50;99.90
64226;DHT22;50545;56.064;26.178;2023-02-14T08:03:58;1.50;99.90
64226;DHT22;50545;56.064;26.178;2023-02-14T08:06:26;1.60;99.90
64226;DHT22;50545;56.064;26.178;2023-02-14T08:08:53;1.60;99.90
64226;DHT22;50545;56.064;26.178;2023-02-14T08:11:21;1.60;99.90
64226;DHT22;50545;56.064;26.178;2023-02-14T08:14:06;1.60;99.90
64226;DHT22;50545;56.064;26.178;2023-02-14T08:16:34;1.60;99.90
64226;DHT22;50545;56.064;26.178;2023-02-14T08:19:01;1.60;99.90
64226;DHT22;50545;56.064;26.178;2023-02-14T08:21:29;1.70;99.90
64226;DHT22;50545;56.064;26.178;2023-02-14T08:23:56;1.70;99.90
64226;DHT22;50545;56.064;26.178;2023-02-14T08:26:23;1.80;99.90
64226;DHT22;50545;56.064;26.178;2023-02-14T08:28:51;1.80;99.90
64226;DHT22;50545;56.064;26.178;2023-02-14T08:31:29;1.80;99.90
64226;DHT22;50545;56.064;26.178;2023-02-14T08:34:04;1.80;99.90
64226;DHT22;50545;56.064;26.178;2023-02-14T08:36:32;1.90;99.90
64226;DHT22;50545;56.064;26.178;2023-02-14T08:39:03;1.90;99.90
64226;DHT22;50545;56.064;26.178;2023-02-14T08:41:30;1.90;99.90
64226;DHT22;50545;56.064;26.178;2023-02-14T08:43:58;1.90;99.90
64226;DHT22;50545;56.064;26.178;2023-02-14T08:46:26;2.00;99.90
64226;DHT22;50545;56.064;26.178;2023-02-14T08:48:54;2.00;99.90
64226;DHT22;50545;56.064;26.178;2023-02-14T08:51:21;2.00;99.90
64226;DHT22;50545;56.064;26.178;2023-02-14T08:53:49;2.10;99.90
64226;DHT22;50545;56.064;26.178;2023-02-14T08:56:17;2.10;99.90
64226;DHT22;50545;56.064;26.178;2023-02-14T08:58:44;2.10;99.90
64226;DHT22;50545;56.064;26.178;2023-02-14T09:01:16;2.20;99.90
64226;DHT22;50545;56.064;26.178;2023-02-14T09:03:43;2.20;99.90
64226;DHT22;50545;56.064;26.178;2023-02-14T09:06:13;2.20;99.90
64226;DHT22;50545;56.064;26.178;2023-02-14T09:08:44;2.30;99.90
64226;DHT22;50545;56.064;26.178;2023-02-14T09:11:20;2.30;99.90
64226;DHT22;50545;56.064;26.178;2023-02-14T09:13:50;2.40;99.90
64226;DHT22;50545;56.064;26.178;2023-02-14T09:16:18;2.40;99.90
64226;DHT22;50545;56.064;26.178;2023-02-14T09:18:47;2.30;99.90
64226;DHT22;50545;56.064;26.178;2023-02-14T09:21:22;2.40;99.90
64226;DHT22;50545;56.064;26.178;2023-02-14T09:23:50;2.40;99.90
64226;DHT22;50545;56.064;26.178;2023-02-14T09:26:18;2.40;99.90
64226;DHT22;50545;56.064;26.178;2023-02-14T09:28:46;2.50;99.90
64226;DHT22;50545;56.064;26.178;2023-02-14T09:31:17;2.50;99.90
64226;DHT22;50545;56.064;26.178;2023-02-14T09:33:45;2.50;99.90
64226;DHT22;50545;56.064;26.178;2023-02-14T09:36:12;2.60;99.90
64226;DHT22;50545;56.064;26.178;2023-02-14T09:38:58;2.60;99.90
64226;DHT22;50545;56.064;26.178;2023-02-14T09:44:03;2.70;99.90
64226;DHT22;50545;56.064;26.178;2023-02-14T09:46:39;2.80;99.90
64226;DHT22;50545;56.064;26.178;2023-02-14T09:49:12;2.80;99.90
64226;DHT22;50545;56.064;26.178;2023-02-14T09:51:45;2.90;99.90
64226;DHT22;50545;56.064;26.178;2023-02-14T09:54:25;3.00;99.90
64226;DHT22;50545;56.064;26.178;2023-02-14T10:05:10;3.10;99.90
64226;DHT22;50545;56.064;26.178;2023-02-14T10:10:52;3.20;99.90
64226;DHT22;50545;56.064;26.178;2023-02-14T10:13:43;3.20;99.90
64226;DHT22;50545;56.064;26.178;2023-02-14T10:19:12;3.30;99.90
64226;DHT22;50545;56.064;26.178;2023-02-14T10:22:01;3.40;99.90
64226;DHT22;50545;56.064;26.178;2023-02-14T10:30:01;3.40;99.90
64226;DHT22;50545;56.064;26.178;2023-02-14T10:32:36;3.50;99.90
64226;DHT22;50545;56.064;26.178;2023-02-14T10:35:20;3.50;99.90
64226;DHT22;50545;56.064;26.178;2023-02-14T10:38:04;3.60;99.90
64226;DHT22;50545;56.064;26.178;2023-02-14T10:40:54;3.60;99.90
64226;DHT22;50545;56.064;26.178;2023-02-14T10:51:55;3.80;99.90
64226;DHT22;50545;56.064;26.178;2023-02-14T10:54:26;3.80;99.90
64226;DHT22;50545;56.064;26.178;2023-02-14T10:57:01;3.80;99.90
64226;DHT22;50545;56.064;26.178;2023-02-14T11:00:01;3.80;99.90
64226;DHT22;50545;56.064;26.178;2023-02-14T11:02:35;3.80;99.90
64226;DHT22;50545;56.064;26.178;2023-02-14T11:05:03;3.80;99.90
64226;DHT22;50545;56.064;26.178;2023-02-14T11:07:32;3.80;99.90
64226;DHT22;50545;56.064;26.178;2023-02-14T11:10:00;3.80;99.90
64226;DHT22;50545;56.064;26.178;2023-02-14T11:12:36;3.80;99.40
64226;DHT22;50545;56.064;26.178;2023-02-14T11:17:42;3.90;96.90
64226;DHT22;50545;56.064;26.178;2023-02-14T11:20:25;3.90;96.80
64226;DHT22;50545;56.064;26.178;2023-02-14T11:22:53;3.90;97.70
64226;DHT22;50545;56.064;26.178;2023-02-14T11:28:11;4.00;95.50
64226;DHT22;50545;56.064;26.178;2023-02-14T11:30:41;4.00;94.10
64226;DHT22;50545;56.064;26.178;2023-02-14T11:33:12;4.00;93.30
64226;DHT22;50545;56.064;26.178;2023-02-14T11:35:51;4.10;93.70
64226;DHT22;50545;56.064;26.178;2023-02-14T11:38:33;4.10;95.40
64226;DHT22;50545;56.064;26.178;2023-02-14T11:41:05;4.20;94.70
64226;DHT22;50545;56.064;26.178;2023-02-14T11:43:38;4.20;94.30
64226;DHT22;50545;56.064;26.178;2023-02-14T11:49:22;4.20;93.00
64226;DHT22;50545;56.064;26.178;2023-02-14T11:51:50;4.20;91.40
64226;DHT22;50545;56.064;26.178;2023-02-14T11:54:38;4.30;92.40
64226;DHT22;50545;56.064;26.178;2023-02-14T11:57:12;4.20;91.60
64226;DHT22;50545;56.064;26.178;2023-02-14T11:59:45;4.30;90.70
64226;DHT22;50545;56.064;26.178;2023-02-14T12:02:23;4.30;91.40
64226;DHT22;50545;56.064;26.178;2023-02-14T12:05:03;4.40;89.60
64226;DHT22;50545;56.064;26.178;2023-02-14T12:07:38;4.40;91.00
64226;DHT22;50545;56.064;26.178;2023-02-14T12:13:00;4.50;90.90
64226;DHT22;50545;56.064;26.178;2023-02-14T12:28:49;4.50;87.30
64226;DHT22;50545;56.064;26.178;2023-02-14T12:31:18;4.50;84.00
64226;DHT22;50545;56.064;26.178;2023-02-14T12:33:45;4.50;90.20
64226;DHT22;50545;56.064;26.178;2023-02-14T12:39:34;4.40;84.50
64226;DHT22;50545;56.064;26.178;2023-02-14T12:51:03;4.40;84.00
64226;DHT22;50545;56.064;26.178;2023-02-14T12:59:51;4.40;82.80
64226;DHT22;50545;56.064;26.178;2023-02-14T13:14:04;4.50;81.70
64226;DHT22;50545;56.064;26.178;2023-02-14T13:21:18;4.50;84.50
64226;DHT22;50545;56.064;26.178;2023-02-14T13:23:50;4.60;72.10
64226;DHT22;50545;56.064;26.178;2023-02-14T13:26:35;4.60;76.50
64226;DHT22;50545;56.064;26.178;2023-02-14T13:29:10;4.70;76.60
64226;DHT22;50545;56.064;26.178;2023-02-14T13:31:40;4.70;76.10
64226;DHT22;50545;56.064;26.178;2023-02-14T13:34:24;4.70;77.80
64226;DHT22;50545;56.064;26.178;2023-02-14T13:36:56;4.70;78.00
64226;DHT22;50545;56.064;26.178;2023-02-14T13:39:36;4.70;81.60
64226;DHT22;50545;56.064;26.178;2023-02-14T13:42:06;4.70;73.30
64226;DHT22;50545;56.064;26.178;2023-02-14T13:44:49;4.70;77.70
64226;DHT22;50545;56.064;26.178;2023-02-14T13:47:22;4.70;80.10
64226;DHT22;50545;56.064;26.178;2023-02-14T13:49:58;4.60;77.40
64226;DHT22;50545;56.064;26.178;2023-02-14T13:52:46;4.60;76.20
64226;DHT22;50545;56.064;26.178;2023-02-14T13:55:22;4.60;77.70
64226;DHT22;50545;56.064;26.178;2023-02-14T13:58:14;4.60;75.20
64226;DHT22;50545;56.064;26.178;2023-02-14T14:00:44;4.60;76.20
64226;DHT22;50545;56.064;26.178;2023-02-14T14:06:11;4.50;72.30
64226;DHT22;50545;56.064;26.178;2023-02-14T14:08:47;4.50;74.70
64226;DHT22;50545;56.064;26.178;2023-02-14T14:14:28;4.40;78.20
64226;DHT22;50545;56.064;26.178;2023-02-14T14:16:59;4.40;72.90
64226;DHT22;50545;56.064;26.178;2023-02-14T14:22:03;4.40;73.70
64226;DHT22;50545;56.064;26.178;2023-02-14T14:24:33;4.40;71.80
64226;DHT22;50545;56.064;26.178;2023-02-14T14:27:20;4.40;72.60
64226;DHT22;50545;56.064;26.178;2023-02-14T14:30:06;4.30;76.20
64226;DHT22;50545;56.064;26.178;2023-02-14T14:32:41;4.20;75.90
64226;DHT22;50545;56.064;26.178;2023-02-14T14:37:52;4.00;76.30
64226;DHT22;50545;56.064;26.178;2023-02-14T14:40:27;3.90;75.00
64226;DHT22;50545;56.064;26.178;2023-02-14T14:43:05;3.80;75.90
64226;DHT22;50545;56.064;26.178;2023-02-14T14:45:36;3.70;77.70
64226;DHT22;50545;56.064;26.178;2023-02-14T14:48:10;3.70;76.00
64226;DHT22;50545;56.064;26.178;2023-02-14T14:50:43;3.60;75.60
64226;DHT22;50545;56.064;26.178;2023-02-14T14:53:28;3.50;76.10
64226;DHT22;50545;56.064;26.178;2023-02-14T14:55:57;3.50;75.80
64226;DHT22;50545;56.064;26.178;2023-02-14T14:58:38;3.40;75.40
64226;DHT22;50545;56.064;26.178;2023-02-14T15:01:10;3.40;74.90
64226;DHT22;50545;56.064;26.178;2023-02-14T15:03:47;3.40;80.40
64226;DHT22;50545;56.064;26.178;2023-02-14T15:06:18;3.30;77.50
64226;DHT22;50545;56.064;26.178;2023-02-14T15:08:47;3.20;76.90
64226;DHT22;50545;56.064;26.178;2023-02-14T15:14:12;3.10;82.00
64226;DHT22;50545;56.064;26.178;2023-02-14T15:16:46;3.00;82.90
64226;DHT22;50545;56.064;26.178;2023-02-14T15:21:47;2.80;82.10
64226;DHT22;50545;56.064;26.178;2023-02-14T15:24:16;2.70;82.20
64226;DHT22;50545;56.064;26.178;2023-02-14T15:26:46;2.60;81.90
64226;DHT22;50545;56.064;26.178;2023-02-14T15:29:28;2.60;83.70
64226;DHT22;50545;56.064;26.178;2023-02-14T15:31:57;2.50;82.10
64226;DHT22;50545;56.064;26.178;2023-02-14T15:34:32;2.60;80.90
64226;DHT22;50545;56.064;26.178;2023-02-14T15:37:02;2.50;82.30
64226;DHT22;50545;56.064;26.178;2023-02-14T15:39:40;2.50;84.20
64226;DHT22;50545;56.064;26.178;2023-02-14T15:42:27;2.50;84.40
64226;DHT22;50545;56.064;26.178;2023-02-14T15:45:21;2.40;82.80
64226;DHT22;50545;56.064;26.178;2023-02-14T15:47:57;2.30;83.00
64226;DHT22;50545;56.064;26.178;2023-02-14T15:53:06;2.20;83.50
64226;DHT22;50545;56.064;26.178;2023-02-14T15:55:34;2.10;84.20
64226;DHT22;50545;56.064;26.178;2023-02-14T15:58:11;2.00;87.00
64226;DHT22;50545;56.064;26.178;2023-02-14T16:00:42;1.90;86.40
64226;DHT22;50545;56.064;26.178;2023-02-14T16:03:18;1.80;86.40
64226;DHT22;50545;56.064;26.178;2023-02-14T16:05:47;1.80;88.40
64226;DHT22;50545;56.064;26.178;2023-02-14T16:08:31;1.70;87.30
64226;DHT22;50545;56.064;26.178;2023-02-14T16:13:33;1.60;89.30
64226;DHT22;50545;56.064;26.178;2023-02-14T16:16:03;1.50;90.70
64226;DHT22;50545;56.064;26.178;2023-02-14T16:18:42;1.50;91.50
64226;DHT22;50545;56.064;26.178;2023-02-14T16:21:29;1.40;91.70
64226;DHT22;50545;56.064;26.178;2023-02-14T16:24:10;1.40;92.00
64226;DHT22;50545;56.064;26.178;2023-02-14T16:26:42;1.30;92.80
64226;DHT22;50545;56.064;26.178;2023-02-14T16:29:14;1.30;93.80
64226;DHT22;50545;56.064;26.178;2023-02-14T16:31:44;1.20;94.30
64226;DHT22;50545;56.064;26.178;2023-02-14T16:34:33;1.20;94.30
64226;DHT22;50545;56.064;26.178;2023-02-14T16:37:07;1.10;95.30
64226;DHT22;50545;56.064;26.178;2023-02-14T16:39:35;1.00;95.50
64226;DHT22;50545;56.064;26.178;2023-02-14T16:42:04;0.90;98.20
64226;DHT22;50545;56.064;26.178;2023-02-14T16:44:31;0.90;96.00
64226;DHT22;50545;56.064;26.178;2023-02-14T16:47:01;0.80;97.00
64226;DHT22;50545;56.064;26.178;2023-02-14T16:49:31;0.80;96.30
64226;DHT22;50545;56.064;26.178;2023-02-14T16:51:58;0.70;96.90
64226;DHT22;50545;56.064;26.178;2023-02-14T16:54:25;0.70;96.00
64226;DHT22;50545;56.064;26.178;2023-02-14T16:56:56;0.60;97.70
64226;DHT22;50545;56.064;26.178;2023-02-14T16:59:24;0.60;98.30
64226;DHT22;50545;56.064;26.178;2023-02-14T17:01:52;0.50;96.70
64226;DHT22;50545;56.064;26.178;2023-02-14T17:04:19;0.50;97.40
64226;DHT22;50545;56.064;26.178;2023-02-14T17:06:52;0.50;98.30
64226;DHT22;50545;56.064;26.178;2023-02-14T17:09:35;0.50;98.10
64226;DHT22;50545;56.064;26.178;2023-02-14T17:12:09;0.40;98.80
64226;DHT22;50545;56.064;26.178;2023-02-14T17:14:43;0.30;98.60
64226;DHT22;50545;56.064;26.178;2023-02-14T17:17:12;0.30;99.80
64226;DHT22;50545;56.064;26.178;2023-02-14T17:19:39;0.20;99.30
64226;DHT22;50545;56.064;26.178;2023-02-14T17:22:07;0.20;99.80
64226;DHT22;50545;56.064;26.178;2023-02-14T17:24:34;0.10;99.90
64226;DHT22;50545;56.064;26.178;2023-02-14T17:27:01;0.10;99.40
64226;DHT22;50545;56.064;26.178;2023-02-14T17:29:29;0.10;98.80
64226;DHT22;50545;56.064;26.178;2023-02-14T17:31:56;0.00;99.20
64226;DHT22;50545;56.064;26.178;2023-02-14T17:34:24;0.10;99.00
64226;DHT22;50545;56.064;26.178;2023-02-14T17:36:51;0.10;98.80
64226;DHT22;50545;56.064;26.178;2023-02-14T17:39:18;0.00;99.50
64226;DHT22;50545;56.064;26.178;2023-02-14T17:41:45;0.00;99.60
64226;DHT22;50545;56.064;26.178;2023-02-14T17:44:13;0.00;99.80
64226;DHT22;50545;56.064;26.178;2023-02-14T17:46:41;-0.10;99.90
64226;DHT22;50545;56.064;26.178;2023-02-14T17:49:08;-0.10;99.90
64226;DHT22;50545;56.064;26.178;2023-02-14T17:51:35;-0.20;99.90
64226;DHT22;50545;56.064;26.178;2023-02-14T17:54:02;-0.30;99.90
64226;DHT22;50545;56.064;26.178;2023-02-14T17:56:30;-0.40;99.90
64226;DHT22;50545;56.064;26.178;2023-02-14T17:58:57;-0.40;99.90
64226;DHT22;50545;56.064;26.178;2023-02-14T18:01:28;-0.50;99.90
64226;DHT22;50545;56.064;26.178;2023-02-14T18:03:57;-0.50;99.90
64226;DHT22;50545;56.064;26.178;2023-02-14T18:06:24;-0.60;99.90
64226;DHT22;50545;56.064;26.178;2023-02-14T18:08:52;-0.60;99.90
64226;DHT22;50545;56.064;26.178;2023-02-14T18:11:25;-0.70;99.90
64226;DHT22;50545;56.064;26.178;2023-02-14T18:13:56;-0.70;99.90
64226;DHT22;50545;56.064;26.178;2023-02-14T18:16:25;-0.70;99.90
64226;DHT22;50545;56.064;26.178;2023-02-14T18:18:52;-0.80;99.90
64226;DHT22;50545;56.064;26.178;2023-02-14T18:21:20;-0.80;99.90
64226;DHT22;50545;56.064;26.178;2023-02-14T18:23:50;-0.80;99.90
64226;DHT22;50545;56.064;26.178;2023-02-14T18:26:18;-0.80;99.90
64226;DHT22;50545;56.064;26.178;2023-02-14T18:28:46;-0.80;99.90
64226;DHT22;50545;56.064;26.178;2023-02-14T18:31:16;-0.80;99.90
64226;DHT22;50545;56.064;26.178;2023-02-14T18:33:45;-0.80;99.90
64226;DHT22;50545;56.064;26.178;2023-02-14T18:36:15;-0.80;99.90
64226;DHT22;50545;56.064;26.178;2023-02-14T18:38:44;-0.80;99.90
64226;DHT22;50545;56.064;26.178;2023-02-14T18:41:14;-0.90;99.90